Time,TemperatureF,DewpointF,PressureIn,WindDirection,WindDirectionDegrees,WindSpeedMPH,WindSpeedGustMPH,Humidity,HourlyPrecipIn,Conditions,Clouds,dailyrainin,SoftwareType,DateUTC
2013-05-15 00:06:00,72.5,-99.9,24.98,NNW,327,8.0,12.1,-999,0.00,,,-99.99,FreeWX 2.04,2013-05-15 06:06:00,
2013-05-15 00:11:00,72.5,-99.9,25.01,NNW,342,7.0,12.5,-999,0.00,,,-99.99,FreeWX 2.04,2013-05-15 06:11:00,
2013-05-15 00:16:00,72.1,-99.9,25.01,North,359,7.0,11.0,-999,0.00,,,-99.99,FreeWX 2.04,2013-05-15 06:16:00,
2013-05-15 00:21:00,72.3,-99.9,25.01,North,3,7.0,11.6,-999,0.00,,,-99.99,FreeWX 2.04,2013-05-15 06:21:00,
2013-05-15 00:26:00,72.3,-99.9,25.01,North,8,7.0,9.6,-999,0.00,,,-99.99,FreeWX 2.04,2013-05-15 06:26:00,
2013-05-15 00:31:00,72.0,-99.9,25.01,NNE,27,4.0,5.4,-999,0.00,,,-99.99,FreeWX 2.04,2013-05-15 06:31:00,
2013-05-15 00:36:00,71.6,-99.9,25.01,NE,36,2.0,6.3,-999,0.00,,,-99.99,FreeWX 2.04,2013-05-15 06:36:00,
2013-05-15 00:41:00,71.4,-99.9,25.01,NNE,33,1.0,4.0,-999,0.00,,,-99.99,FreeWX 2.04,2013-05-15 06:41:00,
2013-05-15 00:46:00,71.1,-99.9,25.01,North,-999,0.0,4.9,-999,0.00,,,-99.99,FreeWX 2.04,2013-05-15 06:46:00,
2013-05-15 00:51:00,71.1,-99.9,25.01,North,-999,0.0,0.0,-999,0.00,,,-99.99,FreeWX 2.04,2013-05-15 06:51:00,
2013-05-15 00:56:00,71.1,-99.9,25.01,North,-999,0.0,4.0,-999,0.00,,,-99.99,FreeWX 2.04,2013-05-15 06:56:00,
2013-05-15 01:01:00,71.4,-99.9,25.01,ENE,70,2.0,4.0,-999,0.00,,,-99.99,FreeWX 2.04,2013-05-15 07:01:00,
2013-05-15 01:06:00,71.6,-99.9,25.01,ENE,69,2.0,4.0,-999,0.00,,,-99.99,FreeWX 2.04,2013-05-15 07:06:00,
2013-05-15 01:11:00,71.4,-99.9,25.01,ENE,69,3.0,4.5,-999,0.00,,,-99.99,FreeWX 2.04,2013-05-15 07:11:00,
2013-05-15 01:16:00,71.4,-99.9,25.01,NNE,25,4.0,9.2,-999,0.00,,,-99.99,FreeWX 2.04,2013-05-15 07:16:00,
2013-05-15 01:21:00,71.1,-99.9,25.01,NNW,335,5.0,9.2,-999,0.00,,,-99.99,FreeWX 2.04,2013-05-15 07:21:00,
2013-05-15 01:26:00,70.7,13.6,25.01,NNW,334,4.0,9.2,11,0.00,,,-99.99,FreeWX 2.04,2013-05-15 07:26:00,
2013-05-15 01:31:00,70.5,15.4,25.01,NNW,329,6.0,10.1,12,0.00,,,-99.99,FreeWX 2.04,2013-05-15 07:31:00,
2013-05-15 01:36:00,70.5,15.4,25.01,NNW,331,6.0,12.1,12,0.00,,,-99.99,FreeWX 2.04,2013-05-15 07:36:00,
2013-05-15 01:41:00,70.9,13.8,25.01,NNW,333,7.0,12.5,11,0.00,,,-99.99,FreeWX 2.04,2013-05-15 07:41:00,
2013-05-15 01:46:00,70.5,15.4,25.01,NNW,333,7.0,11.6,12,0.00,,,-99.99,FreeWX 2.04,2013-05-15 07:46:00,
2013-05-15 01:51:00,70.2,15.3,25.01,NNW,335,6.0,11.6,12,0.00,,,-99.99,FreeWX 2.04,2013-05-15 07:51:00,
2013-05-15 01:56:00,69.8,18.5,25.01,NNW,336,7.0,11.0,14,0.00,,,-99.99,FreeWX 2.04,2013-05-15 07:56:00,
2013-05-15 02:02:00,70.3,15.3,25.01,NNW,337,8.0,12.1,12,0.00,,,-99.99,FreeWX 2.04,2013-05-15 08:02:00,
2013-05-15 02:07:00,70.0,18.7,25.01,NNW,344,8.0,11.2,14,0.00,,,-99.99,FreeWX 2.04,2013-05-15 08:07:00,
2013-05-15 02:12:00,70.0,18.7,24.98,NNW,348,8.0,13.0,14,0.00,,,-99.99,FreeWX 2.04,2013-05-15 08:12:00,
2013-05-15 02:17:00,69.8,18.5,24.98,NNW,347,9.0,13.4,14,0.00,,,-99.99,FreeWX 2.04,2013-05-15 08:17:00,
2013-05-15 02:22:00,69.8,18.5,24.98,NNW,342,8.0,11.2,14,0.00,,,-99.99,FreeWX 2.04,2013-05-15 08:22:00,
2013-05-15 02:27:00,70.2,18.7,24.98,NNW,335,7.0,9.6,14,0.00,,,-99.99,FreeWX 2.04,2013-05-15 08:27:00,
2013-05-15 02:32:00,69.4,18.1,24.98,NNW,330,6.0,7.8,14,0.00,,,-99.99,FreeWX 2.04,2013-05-15 08:32:00,
2013-05-15 02:37:00,69.4,18.1,24.98,NNW,334,5.0,6.7,14,0.00,,,-99.99,FreeWX 2.04,2013-05-15 08:37:00,
2013-05-15 02:42:00,69.1,22.5,24.98,NNW,331,5.0,9.6,17,0.00,,,-99.99,FreeWX 2.04,2013-05-15 08:42:00,
2013-05-15 02:47:00,68.7,22.1,24.98,NW,323,7.0,11.2,17,0.00,,,-99.99,FreeWX 2.04,2013-05-15 08:47:00,
2013-05-15 02:52:00,69.6,18.3,24.98,NW,321,8.0,10.1,14,0.00,,,-99.99,FreeWX 2.04,2013-05-15 08:52:00,
2013-05-15 02:57:00,69.4,18.1,24.98,NNW,327,7.0,10.1,14,0.00,,,-99.99,FreeWX 2.04,2013-05-15 08:57:00,
2013-05-15 03:02:00,67.6,27.5,24.98,NW,326,8.0,15.2,22,0.00,,,-99.99,FreeWX 2.04,2013-05-15 09:02:00,
2013-05-15 03:07:00,67.6,27.5,24.98,NW,326,9.0,12.5,22,0.00,,,-99.99,FreeWX 2.04,2013-05-15 09:07:00,
2013-05-15 03:12:00,68.0,27.7,24.98,NNW,339,10.0,15.9,22,0.00,,,-99.99,FreeWX 2.04,2013-05-15 09:12:00,
2013-05-15 03:17:00,68.0,27.7,24.98,NNW,347,11.0,15.4,22,0.00,,,-99.99,FreeWX 2.04,2013-05-15 09:17:00,
2013-05-15 03:22:00,67.8,27.5,24.98,North,350,12.0,16.8,22,0.00,,,-99.99,FreeWX 2.04,2013-05-15 09:22:00,
2013-05-15 03:27:00,67.8,27.5,24.98,North,349,11.0,14.3,22,0.00,,,-99.99,FreeWX 2.04,2013-05-15 09:27:00,
2013-05-15 03:32:00,68.0,27.7,24.98,North,350,9.0,13.0,22,0.00,,,-99.99,FreeWX 2.04,2013-05-15 09:32:00,
2013-05-15 03:37:00,68.0,25.5,24.98,North,350,9.0,12.5,20,0.00,,,-99.99,FreeWX 2.04,2013-05-15 09:37:00,
2013-05-15 03:42:00,68.2,25.5,24.98,North,351,9.0,14.8,20,0.00,,,-99.99,FreeWX 2.04,2013-05-15 09:42:00,
2013-05-15 03:47:00,68.0,25.5,24.98,North,357,9.0,11.0,20,0.00,,,-99.99,FreeWX 2.04,2013-05-15 09:47:00,
2013-05-15 03:52:00,68.0,25.5,24.98,North,354,8.0,11.6,20,0.00,,,-99.99,FreeWX 2.04,2013-05-15 09:52:00,
2013-05-15 03:57:00,67.6,27.5,25.01,North,351,7.0,9.2,22,0.00,,,-99.99,FreeWX 2.04,2013-05-15 09:57:00,
2013-05-15 04:02:00,67.3,27.1,25.01,North,355,7.0,9.6,22,0.00,,,-99.99,FreeWX 2.04,2013-05-15 10:02:00,
2013-05-15 04:07:00,66.9,27.9,25.01,North,353,7.0,12.1,23,0.00,,,-99.99,FreeWX 2.04,2013-05-15 10:07:00,
2013-05-15 04:12:00,66.4,27.5,24.98,North,354,7.0,11.0,23,0.00,,,-99.99,FreeWX 2.04,2013-05-15 10:12:00,
2013-05-15 04:17:00,66.0,28.2,24.98,North,1,7.0,10.5,24,0.00,,,-99.99,FreeWX 2.04,2013-05-15 10:17:00,
2013-05-15 04:22:00,65.7,27.9,24.98,North,1,7.0,9.2,24,0.00,,,-99.99,FreeWX 2.04,2013-05-15 10:22:00,
2013-05-15 04:27:00,65.7,27.9,24.98,North,358,6.0,6.9,24,0.00,,,-99.99,FreeWX 2.04,2013-05-15 10:27:00,
2013-05-15 04:32:00,65.5,27.7,24.98,North,355,4.0,5.8,24,0.00,,,-99.99,FreeWX 2.04,2013-05-15 10:32:00,
2013-05-15 04:37:00,65.1,28.4,24.98,NNW,335,4.0,6.7,25,0.00,,,-99.99,FreeWX 2.04,2013-05-15 10:37:00,
2013-05-15 04:42:00,64.2,29.5,25.01,NW,309,5.0,7.4,27,0.00,,,-99.99,FreeWX 2.04,2013-05-15 10:42:00,
2013-05-15 04:47:00,64.0,29.3,25.01,NW,310,6.0,6.9,27,0.00,,,-99.99,FreeWX 2.04,2013-05-15 10:47:00,
2013-05-15 04:52:00,64.0,30.2,25.01,NW,313,6.0,7.8,28,0.00,,,-99.99,FreeWX 2.04,2013-05-15 10:52:00,
2013-05-15 04:57:00,64.0,30.2,24.98,NW,309,6.0,7.8,28,0.00,,,-99.99,FreeWX 2.04,2013-05-15 10:57:00,
2013-05-15 05:02:00,64.0,30.2,24.98,NW,320,6.0,8.7,28,0.00,,,-99.99,FreeWX 2.04,2013-05-15 11:02:00,
2013-05-15 05:18:00,63.5,31.5,24.98,North,351,6.0,8.3,30,0.00,,,-99.99,FreeWX 2.04,2013-05-15 11:18:00,
2013-05-15 05:28:00,63.5,31.5,24.98,North,7,7.0,11.0,30,0.00,,,-99.99,FreeWX 2.04,2013-05-15 11:28:00,
2013-05-15 05:49:00,63.1,32.0,24.98,NNW,333,6.0,7.8,31,0.00,,,-99.99,FreeWX 2.04,2013-05-15 11:49:00,
2013-05-15 05:54:00,62.6,33.1,24.98,NW,315,6.0,9.6,33,0.00,,,-99.99,FreeWX 2.04,2013-05-15 11:54:00,
2013-05-15 05:59:00,62.6,33.1,24.98,NW,312,6.0,8.7,33,0.00,,,-99.99,FreeWX 2.04,2013-05-15 11:59:00,
2013-05-15 06:04:00,62.8,32.5,24.98,NW,321,6.0,8.7,32,0.00,,,-99.99,FreeWX 2.04,2013-05-15 12:04:00,
2013-05-15 06:09:00,62.2,32.0,25.01,NNW,337,6.0,7.8,32,0.00,,,-99.99,FreeWX 2.04,2013-05-15 12:09:00,
2013-05-15 06:14:00,61.7,32.4,25.01,NNE,14,5.0,8.7,33,0.00,,,-99.99,FreeWX 2.04,2013-05-15 12:14:00,
2013-05-15 06:19:00,61.2,32.5,25.01,NE,49,4.0,6.7,34,0.00,,,-99.99,FreeWX 2.04,2013-05-15 12:19:00,
2013-05-15 06:24:00,60.4,32.7,24.98,ENE,64,4.0,6.3,35,0.00,,,-99.99,FreeWX 2.04,2013-05-15 12:24:00,
2013-05-15 06:29:00,60.3,32.5,24.98,ENE,71,4.0,4.9,35,0.00,,,-99.99,FreeWX 2.04,2013-05-15 12:29:00,
2013-05-15 06:34:00,60.6,32.9,24.98,ENE,71,3.0,4.5,35,0.00,,,-99.99,FreeWX 2.04,2013-05-15 12:34:00,
2013-05-15 06:39:00,61.9,33.3,24.98,NNE,28,4.0,5.8,34,0.00,,,-99.99,FreeWX 2.04,2013-05-15 12:39:00,
2013-05-15 06:44:00,61.9,32.5,24.98,NNW,346,5.0,6.9,33,0.00,,,-99.99,FreeWX 2.04,2013-05-15 12:44:00,
2013-05-15 06:49:00,62.6,31.5,24.98,NNW,338,5.0,6.7,31,0.00,,,-99.99,FreeWX 2.04,2013-05-15 12:49:00,
2013-05-15 06:54:00,62.1,32.5,24.98,NW,306,6.0,10.1,33,0.00,,,-99.99,FreeWX 2.04,2013-05-15 12:54:00,
2013-05-15 06:59:00,61.7,33.1,24.98,WNW,289,6.0,11.2,34,0.00,,,-99.99,FreeWX 2.04,2013-05-15 12:59:00,
2013-05-15 07:04:00,61.5,32.9,24.98,NW,306,6.0,7.8,34,0.00,,,-99.99,FreeWX 2.04,2013-05-15 13:04:00,
2013-05-15 07:15:00,62.2,33.4,25.01,NNW,334,2.0,6.9,34,0.00,,,-99.99,FreeWX 2.04,2013-05-15 13:15:00,
2013-05-15 07:25:00,63.1,34.3,25.01,East,94,2.0,4.9,34,0.00,,,-99.99,FreeWX 2.04,2013-05-15 13:25:00,
2013-05-15 07:30:00,63.3,34.5,25.01,SE,145,3.0,5.4,34,0.00,,,-99.99,FreeWX 2.04,2013-05-15 13:30:00,
2013-05-15 07:35:00,64.2,34.5,25.01,SE,145,2.0,5.4,33,0.00,,,-99.99,FreeWX 2.04,2013-05-15 13:35:00,
2013-05-15 07:40:00,64.8,34.2,25.01,SE,127,2.0,4.0,32,0.00,,,-99.99,FreeWX 2.04,2013-05-15 13:40:00,
2013-05-15 07:45:00,64.6,33.3,25.01,ESE,121,2.0,4.9,31,0.00,,,-99.99,FreeWX 2.04,2013-05-15 13:45:00,
2013-05-15 07:50:00,65.1,32.9,25.01,ESE,121,2.0,4.0,30,0.00,,,-99.99,FreeWX 2.04,2013-05-15 13:50:00,
2013-05-15 07:55:00,65.5,33.3,25.01,ESE,121,2.0,4.5,30,0.00,,,-99.99,FreeWX 2.04,2013-05-15 13:55:00,
2013-05-15 08:00:00,65.8,32.7,25.01,ESE,121,2.0,4.9,29,0.00,,,-99.99,FreeWX 2.04,2013-05-15 14:00:00,
2013-05-15 08:05:00,66.0,32.9,25.01,ESE,121,3.0,4.9,29,0.00,,,-99.99,FreeWX 2.04,2013-05-15 14:05:00,
2013-05-15 08:10:00,66.0,32.9,25.01,NE,54,3.0,5.4,29,0.00,,,-99.99,FreeWX 2.04,2013-05-15 14:10:00,
2013-05-15 08:26:00,68.2,31.1,25.01,NNW,334,3.0,6.3,25,0.00,,,-99.99,FreeWX 2.04,2013-05-15 14:26:00,
2013-05-15 08:31:00,68.7,31.5,25.01,North,355,4.0,6.7,25,0.00,,,-99.99,FreeWX 2.04,2013-05-15 14:31:00,
2013-05-15 08:36:00,68.2,30.0,25.01,North,1,4.0,6.7,24,0.00,,,-99.99,FreeWX 2.04,2013-05-15 14:36:00,
2013-05-15 08:41:00,68.4,30.2,25.01,North,0,5.0,8.3,24,0.00,,,-99.99,FreeWX 2.04,2013-05-15 14:41:00,
2013-05-15 08:46:00,68.5,30.4,25.01,North,7,5.0,7.8,24,0.00,,,-99.99,FreeWX 2.04,2013-05-15 14:46:00,
2013-05-15 08:51:00,69.6,30.2,25.01,NNE,21,4.0,7.4,23,0.00,,,-99.99,FreeWX 2.04,2013-05-15 14:51:00,
2013-05-15 09:01:00,70.0,30.6,25.01,NNW,347,7.0,11.0,23,0.00,,,-99.99,FreeWX 2.04,2013-05-15 15:01:00,
2013-05-15 09:07:00,70.0,30.6,25.01,NNW,347,8.0,12.1,23,0.00,,,-99.99,FreeWX 2.04,2013-05-15 15:07:00,
2013-05-15 09:12:00,69.6,29.1,25.01,North,353,8.0,13.4,22,0.00,,,-99.99,FreeWX 2.04,2013-05-15 15:12:00,
2013-05-15 09:22:00,70.3,29.7,25.01,NNW,336,6.0,9.2,22,0.00,,,-99.99,FreeWX 2.04,2013-05-15 15:22:00,
2013-05-15 09:27:00,70.9,30.2,25.01,NNW,344,6.0,9.2,22,0.00,,,-99.99,FreeWX 2.04,2013-05-15 15:27:00,
2013-05-15 09:32:00,71.2,29.3,25.01,NNW,341,6.0,11.0,21,0.00,,,-99.99,FreeWX 2.04,2013-05-15 15:32:00,
2013-05-15 09:37:00,71.6,29.7,25.01,NNW,331,7.0,10.5,21,0.00,,,-99.99,FreeWX 2.04,2013-05-15 15:37:00,
2013-05-15 09:42:00,72.0,29.8,25.01,NNW,335,8.0,13.0,21,0.00,,,-99.99,FreeWX 2.04,2013-05-15 15:42:00,
2013-05-15 09:52:00,72.9,27.0,25.01,NNW,340,8.0,13.4,18,0.00,,,-99.99,FreeWX 2.04,2013-05-15 15:52:00,
2013-05-15 09:57:00,72.9,27.0,25.01,NNW,339,8.0,11.2,18,0.00,,,-99.99,FreeWX 2.04,2013-05-15 15:57:00,
2013-05-15 10:02:00,72.7,23.9,25.01,NNW,339,8.0,13.0,16,0.00,,,-99.99,FreeWX 2.04,2013-05-15 16:02:00,
2013-05-15 10:13:00,74.1,25.0,25.01,NNW,340,7.0,11.6,16,0.00,,,-99.99,FreeWX 2.04,2013-05-15 16:13:00,
2013-05-15 10:23:00,74.7,20.5,25.01,NNW,342,7.0,11.6,13,0.00,,,-99.99,FreeWX 2.04,2013-05-15 16:23:00,
2013-05-15 10:28:00,75.4,21.2,25.01,NNW,338,7.0,10.5,13,0.00,,,-99.99,FreeWX 2.04,2013-05-15 16:28:00,
2013-05-15 10:33:00,75.2,21.0,25.01,NNW,341,7.0,11.6,13,0.00,,,-99.99,FreeWX 2.04,2013-05-15 16:33:00,
2013-05-15 10:43:00,76.3,-99.9,25.01,NNW,338,8.0,13.0,-999,0.00,,,-99.99,FreeWX 2.04,2013-05-15 16:43:00,
2013-05-15 10:48:00,76.6,-99.9,25.01,North,355,7.0,11.2,-999,0.00,,,-99.99,FreeWX 2.04,2013-05-15 16:48:00,
2013-05-15 11:04:00,77.9,-99.9,24.98,NNW,345,4.0,9.2,-999,0.00,,,-99.99,FreeWX 2.04,2013-05-15 17:04:00,
2013-05-15 11:09:00,77.5,-99.9,24.98,NW,318,5.0,9.2,-999,0.00,,,-99.99,FreeWX 2.04,2013-05-15 17:09:00,
2013-05-15 11:14:00,77.9,-99.9,24.98,WSW,251,5.0,7.8,-999,0.00,,,-99.99,FreeWX 2.04,2013-05-15 17:14:00,
2013-05-15 11:19:00,79.0,-99.9,24.98,West,262,5.0,10.5,-999,0.00,,,-99.99,FreeWX 2.04,2013-05-15 17:19:00,
2013-05-15 11:24:00,77.5,-99.9,24.98,West,268,5.0,11.2,-999,0.00,,,-99.99,FreeWX 2.04,2013-05-15 17:24:00,
2013-05-15 11:29:00,76.8,-99.9,24.98,WSW,245,5.0,7.4,-999,0.00,,,-99.99,FreeWX 2.04,2013-05-15 17:29:00,
2013-05-15 11:34:00,76.8,-99.9,24.98,SSW,192,3.0,6.9,-999,0.00,,,-99.99,FreeWX 2.04,2013-05-15 17:34:00,
2013-05-15 11:39:00,76.6,-99.9,24.98,SSE,155,3.0,5.8,-999,0.00,,,-99.99,FreeWX 2.04,2013-05-15 17:39:00,
2013-05-15 11:44:00,76.6,-99.9,24.98,SSW,206,4.0,8.7,-999,0.00,,,-99.99,FreeWX 2.04,2013-05-15 17:44:00,
2013-05-15 11:49:00,76.1,-99.9,24.98,WSW,249,5.0,7.4,-999,0.00,,,-99.99,FreeWX 2.04,2013-05-15 17:49:00,
2013-05-15 11:54:00,75.9,-99.9,24.98,WSW,247,4.0,6.7,-999,0.00,,,-99.99,FreeWX 2.04,2013-05-15 17:54:00,
2013-05-15 12:05:00,75.7,-99.9,24.98,SW,215,4.0,6.7,-999,0.00,,,-99.99,FreeWX 2.04,2013-05-15 18:05:00,
2013-05-15 12:10:00,75.9,-99.9,24.98,SW,216,4.0,5.8,-999,0.00,,,-99.99,FreeWX 2.04,2013-05-15 18:10:00,
2013-05-15 12:15:00,76.1,-99.9,24.98,WSW,250,4.0,5.8,-999,0.00,,,-99.99,FreeWX 2.04,2013-05-15 18:15:00,
2013-05-15 12:20:00,76.5,-99.9,24.98,West,267,3.0,4.9,-999,0.00,,,-99.99,FreeWX 2.04,2013-05-15 18:20:00,
2013-05-15 12:25:00,76.8,-99.9,24.95,North,-999,0.0,3.6,-999,0.00,,,-99.99,FreeWX 2.04,2013-05-15 18:25:00,
2013-05-15 12:40:00,77.5,-99.9,24.95,NNE,31,4.0,8.3,-999,0.00,,,-99.99,FreeWX 2.04,2013-05-15 18:40:00,
2013-05-15 12:45:00,77.7,-99.9,24.95,NE,41,3.0,4.5,-999,0.00,,,-99.99,FreeWX 2.04,2013-05-15 18:45:00,
2013-05-15 12:50:00,77.7,-99.9,24.95,NNE,28,3.0,6.9,-999,0.00,,,-99.99,FreeWX 2.04,2013-05-15 18:50:00,
2013-05-15 12:55:00,77.7,-99.9,24.95,North,353,4.0,6.3,-999,0.00,,,-99.99,FreeWX 2.04,2013-05-15 18:55:00,
2013-05-15 13:00:00,77.5,-99.9,24.95,NNW,331,4.0,5.8,-999,0.00,,,-99.99,FreeWX 2.04,2013-05-15 19:00:00,
2013-05-15 13:05:00,77.5,-99.9,24.95,WNW,302,4.0,6.7,-999,0.00,,,-99.99,FreeWX 2.04,2013-05-15 19:05:00,
2013-05-15 13:10:00,77.7,-99.9,24.95,WNW,297,4.0,6.9,-999,0.00,,,-99.99,FreeWX 2.04,2013-05-15 19:10:00,
2013-05-15 13:21:00,77.9,-99.9,24.95,NNW,341,5.0,9.2,-999,0.00,,,-99.99,FreeWX 2.04,2013-05-15 19:21:00,
2013-05-15 13:26:00,78.3,-99.9,24.92,NNW,343,7.0,21.5,-999,0.00,,,-99.99,FreeWX 2.04,2013-05-15 19:26:00,
2013-05-15 13:36:00,79.7,-99.9,24.92,North,356,6.0,8.7,-999,0.00,,,-99.99,FreeWX 2.04,2013-05-15 19:36:00,
2013-05-15 13:46:00,80.4,-99.9,24.92,NNW,327,4.0,6.3,-999,0.00,,,-99.99,FreeWX 2.04,2013-05-15 19:46:00,
2013-05-15 13:51:00,79.7,-99.9,24.92,WSW,247,7.0,15.2,-999,0.00,,,-99.99,FreeWX 2.04,2013-05-15 19:51:00,
2013-05-15 13:56:00,79.3,-99.9,24.92,SSW,210,9.0,13.0,-999,0.00,,,-99.99,FreeWX 2.04,2013-05-15 19:56:00,
2013-05-15 14:07:00,79.5,-99.9,24.92,West,262,7.0,11.0,-999,0.00,,,-99.99,FreeWX 2.04,2013-05-15 20:07:00,
2013-05-15 14:12:00,79.9,-99.9,24.92,West,276,6.0,7.4,-999,0.00,,,-99.99,FreeWX 2.04,2013-05-15 20:12:00,
2013-05-15 14:22:00,80.2,-99.9,24.92,WNW,282,4.0,6.9,-999,0.00,,,-99.99,FreeWX 2.04,2013-05-15 20:22:00,
2013-05-15 14:27:00,81.1,-99.9,24.92,West,269,3.0,5.4,-999,0.00,,,-99.99,FreeWX 2.04,2013-05-15 20:27:00,
2013-05-15 14:32:00,81.1,-99.9,24.92,WNW,282,4.0,7.4,-999,0.00,,,-99.99,FreeWX 2.04,2013-05-15 20:32:00,
2013-05-15 14:37:00,81.1,-99.9,24.92,West,271,5.0,11.0,-999,0.00,,,-99.99,FreeWX 2.04,2013-05-15 20:37:00,
2013-05-15 14:42:00,81.0,-99.9,24.89,West,259,7.0,12.1,-999,0.00,,,-99.99,FreeWX 2.04,2013-05-15 20:42:00,
2013-05-15 14:47:00,80.6,-99.9,24.89,WSW,253,6.0,8.7,-999,0.00,,,-99.99,FreeWX 2.04,2013-05-15 20:47:00,
2013-05-15 14:58:00,77.9,-99.9,24.92,WNW,294,5.0,6.9,-999,0.00,,,-99.99,FreeWX 2.04,2013-05-15 20:58:00,
2013-05-15 15:03:00,76.8,32.7,24.92,WNW,300,4.0,7.4,20,0.00,,,-99.99,FreeWX 2.04,2013-05-15 21:03:00,
2013-05-15 15:08:00,76.6,43.7,24.92,West,267,4.0,8.3,31,0.00,,,-99.99,FreeWX 2.04,2013-05-15 21:08:00,
2013-05-15 15:13:00,77.9,33.6,24.89,WSW,244,5.0,9.2,20,0.00,,,-99.99,FreeWX 2.04,2013-05-15 21:13:00,
2013-05-15 15:18:00,79.3,27.7,24.89,WSW,237,5.0,7.4,15,0.00,,,-99.99,FreeWX 2.04,2013-05-15 21:18:00,
2013-05-15 15:23:00,79.5,-99.9,24.89,WSW,241,5.0,7.4,-999,0.00,,,-99.99,FreeWX 2.04,2013-05-15 21:23:00,
2013-05-15 15:28:00,81.1,32.2,24.89,West,275,4.0,6.9,17,0.00,,,-99.99,FreeWX 2.04,2013-05-15 21:28:00,
2013-05-15 15:38:00,81.7,-99.9,24.89,North,359,2.0,4.9,-999,0.00,,,-99.99,FreeWX 2.04,2013-05-15 21:38:00,
2013-05-15 15:43:00,81.7,-99.9,24.89,North,356,2.0,4.9,-999,0.00,,,-99.99,FreeWX 2.04,2013-05-15 21:43:00,
2013-05-15 15:48:00,81.7,-99.9,24.89,North,358,2.0,6.7,-999,0.00,,,-99.99,FreeWX 2.04,2013-05-15 21:48:00,
2013-05-15 15:58:00,81.3,-99.9,24.89,NNW,340,2.0,5.4,-999,0.00,,,-99.99,FreeWX 2.04,2013-05-15 21:58:00,
2013-05-15 16:03:00,81.7,-99.9,24.89,WNW,300,2.0,6.9,-999,0.00,,,-99.99,FreeWX 2.04,2013-05-15 22:03:00,
2013-05-15 16:14:00,80.6,-99.9,24.86,WNW,288,5.0,9.2,-999,0.00,,,-99.99,FreeWX 2.04,2013-05-15 22:14:00,
2013-05-15 16:19:00,80.6,-99.9,24.86,WSW,249,4.0,7.4,-999,0.00,,,-99.99,FreeWX 2.04,2013-05-15 22:19:00,
2013-05-15 16:24:00,81.0,-99.9,24.86,West,262,3.0,6.9,-999,0.00,,,-99.99,FreeWX 2.04,2013-05-15 22:24:00,
2013-05-15 16:29:00,81.3,-99.9,24.86,WNW,285,2.0,5.8,-999,0.00,,,-99.99,FreeWX 2.04,2013-05-15 22:29:00,
2013-05-15 16:34:00,81.3,-99.9,24.86,NNW,336,2.0,6.3,-999,0.00,,,-99.99,FreeWX 2.04,2013-05-15 22:34:00,
2013-05-15 16:39:00,81.1,-99.9,24.86,North,3,3.0,6.9,-999,0.00,,,-99.99,FreeWX 2.04,2013-05-15 22:39:00,
2013-05-15 16:54:00,80.6,-99.9,24.86,North,351,5.0,8.7,-999,0.00,,,-99.99,FreeWX 2.04,2013-05-15 22:54:00,
2013-05-15 16:59:00,79.0,-99.9,24.86,North,4,6.0,10.1,-999,0.00,,,-99.99,FreeWX 2.04,2013-05-15 22:59:00,
2013-05-15 17:04:00,79.5,-99.9,24.86,North,356,6.0,9.2,-999,0.00,,,-99.99,FreeWX 2.04,2013-05-15 23:04:00,
2013-05-15 17:09:00,79.9,-99.9,24.86,NNW,333,6.0,7.8,-999,0.00,,,-99.99,FreeWX 2.04,2013-05-15 23:09:00,
2013-05-15 17:20:00,79.3,-99.9,24.86,North,0,4.0,6.3,-999,0.00,,,-99.99,FreeWX 2.04,2013-05-15 23:20:00,
2013-05-15 17:25:00,79.3,-99.9,24.86,NNE,21,3.0,4.0,-999,0.00,,,-99.99,FreeWX 2.04,2013-05-15 23:25:00,
2013-05-15 17:30:00,79.0,-99.9,24.86,NNE,24,2.0,5.4,-999,0.00,,,-99.99,FreeWX 2.04,2013-05-15 23:30:00,
2013-05-15 17:35:00,78.3,-99.9,24.86,North,352,3.0,8.7,-999,0.00,,,-99.99,FreeWX 2.04,2013-05-15 23:35:00,
2013-05-15 17:40:00,77.5,-99.9,24.86,NW,316,6.0,12.1,-999,0.00,,,-99.99,FreeWX 2.04,2013-05-15 23:40:00,
2013-05-15 17:50:00,75.7,-99.9,24.86,West,274,7.0,13.4,-999,0.00,,,-99.99,FreeWX 2.04,2013-05-15 23:50:00,
2013-05-15 17:55:00,75.7,-99.9,24.89,NNW,337,6.0,10.1,-999,0.00,,,-99.99,FreeWX 2.04,2013-05-15 23:55:00,
2013-05-15 18:00:00,75.7,-99.9,24.89,North,11,5.0,9.6,-999,0.00,,,-99.99,FreeWX 2.04,2013-05-16 00:00:00,
2013-05-15 18:05:00,75.6,21.2,24.89,North,354,5.0,8.3,13,0.00,,,-99.99,FreeWX 2.04,2013-05-16 00:05:00,
2013-05-15 18:10:00,75.9,21.6,24.89,NNW,334,5.0,9.6,13,0.00,,,-99.99,FreeWX 2.04,2013-05-16 00:10:00,
2013-05-15 18:15:00,75.9,-99.9,24.89,NW,316,5.0,15.4,-999,0.00,,,-99.99,FreeWX 2.04,2013-05-16 00:15:00,
2013-05-15 18:20:00,75.7,-99.9,24.89,NW,315,5.0,9.2,-999,0.00,,,-99.99,FreeWX 2.04,2013-05-16 00:20:00,
2013-05-15 18:25:00,74.8,-99.9,24.89,NW,322,6.0,14.8,-999,0.00,,,-99.99,FreeWX 2.04,2013-05-16 00:25:00,
2013-05-15 18:30:00,74.7,-99.9,24.89,NNW,335,8.0,15.2,-999,0.00,,,-99.99,FreeWX 2.04,2013-05-16 00:30:00,
2013-05-15 18:35:00,74.5,-99.9,24.89,NNW,342,8.0,13.0,-999,0.00,,,-99.99,FreeWX 2.04,2013-05-16 00:35:00,
2013-05-15 18:40:00,74.1,20.1,24.89,NNW,343,9.0,15.2,13,0.00,,,-99.99,FreeWX 2.04,2013-05-16 00:40:00,
2013-05-15 18:45:00,74.3,16.3,24.89,NNW,348,10.0,18.6,11,0.00,,,-99.99,FreeWX 2.04,2013-05-16 00:45:00,
2013-05-15 18:56:00,74.3,20.3,24.89,NNW,338,10.0,19.5,13,0.00,,,-99.99,FreeWX 2.04,2013-05-16 00:56:00,
2013-05-15 19:01:00,73.9,19.9,24.89,NNW,346,12.0,19.9,13,0.00,,,-99.99,FreeWX 2.04,2013-05-16 01:01:00,
2013-05-15 19:06:00,73.9,19.9,24.89,NNW,346,11.0,14.3,13,0.00,,,-99.99,FreeWX 2.04,2013-05-16 01:06:00,
2013-05-15 19:16:00,73.8,19.9,24.89,NNW,348,11.0,19.5,13,0.00,,,-99.99,FreeWX 2.04,2013-05-16 01:16:00,
2013-05-15 19:21:00,73.6,19.8,24.89,NNW,347,12.0,17.7,13,0.00,,,-99.99,FreeWX 2.04,2013-05-16 01:21:00,
2013-05-15 19:26:00,73.2,24.3,24.89,North,349,11.0,16.3,16,0.00,,,-99.99,FreeWX 2.04,2013-05-16 01:26:00,
2013-05-15 19:37:00,72.5,30.4,24.89,North,2,8.0,11.0,21,0.00,,,-99.99,FreeWX 2.04,2013-05-16 01:37:00,
2013-05-15 19:42:00,72.1,30.0,24.89,NNE,18,6.0,12.1,21,0.00,,,-99.99,FreeWX 2.04,2013-05-16 01:42:00,
2013-05-15 19:47:00,72.7,26.8,24.89,North,8,7.0,11.0,18,0.00,,,-99.99,FreeWX 2.04,2013-05-16 01:47:00,
2013-05-15 19:52:00,72.9,24.1,24.89,NW,316,8.0,17.2,16,0.00,,,-99.99,FreeWX 2.04,2013-05-16 01:52:00,
2013-05-15 19:57:00,73.4,19.6,24.86,WNW,292,10.0,24.2,13,0.00,,,-99.99,FreeWX 2.04,2013-05-16 01:57:00,
2013-05-15 20:07:00,72.5,23.7,24.86,ENE,59,6.0,9.2,16,0.00,,,-99.99,FreeWX 2.04,2013-05-16 02:07:00,
2013-05-15 20:12:00,72.5,23.7,24.86,NE,42,6.0,9.6,16,0.00,,,-99.99,FreeWX 2.04,2013-05-16 02:12:00,
2013-05-15 20:17:00,72.1,23.5,24.86,NNE,20,4.0,8.7,16,0.00,,,-99.99,FreeWX 2.04,2013-05-16 02:17:00,
2013-05-15 20:22:00,71.6,27.1,24.86,NNE,22,3.0,5.4,19,0.00,,,-99.99,FreeWX 2.04,2013-05-16 02:22:00,
2013-05-15 20:27:00,72.0,23.4,24.89,North,359,4.0,6.9,16,0.00,,,-99.99,FreeWX 2.04,2013-05-16 02:27:00,
2013-05-15 20:32:00,71.4,27.0,24.89,NNW,328,4.0,6.3,19,0.00,,,-99.99,FreeWX 2.04,2013-05-16 02:32:00,
2013-05-15 20:37:00,71.4,27.0,24.89,West,270,5.0,9.6,19,0.00,,,-99.99,FreeWX 2.04,2013-05-16 02:37:00,
2013-05-15 20:42:00,70.9,28.9,24.89,SSW,208,6.0,10.5,21,0.00,,,-99.99,FreeWX 2.04,2013-05-16 02:42:00,
2013-05-15 20:47:00,70.5,29.8,24.89,SSW,192,6.0,7.8,22,0.00,,,-99.99,FreeWX 2.04,2013-05-16 02:47:00,
2013-05-15 20:58:00,69.8,29.3,24.92,South,189,4.0,6.7,22,0.00,,,-99.99,FreeWX 2.04,2013-05-16 02:58:00,
2013-05-15 21:03:00,69.8,29.3,24.92,SSW,198,2.0,4.9,22,0.00,,,-99.99,FreeWX 2.04,2013-05-16 03:03:00,
2013-05-15 21:08:00,69.6,29.1,24.92,South,190,2.0,6.3,22,0.00,,,-99.99,FreeWX 2.04,2013-05-16 03:08:00,
2013-05-15 21:18:00,69.1,29.7,24.92,SSE,165,5.0,9.2,23,0.00,,,-99.99,FreeWX 2.04,2013-05-16 03:18:00,
2013-05-15 21:29:00,69.1,29.7,24.92,SSE,148,5.0,6.7,23,0.00,,,-99.99,FreeWX 2.04,2013-05-16 03:29:00,
2013-05-15 21:34:00,69.1,29.7,24.92,South,181,5.0,7.4,23,0.00,,,-99.99,FreeWX 2.04,2013-05-16 03:34:00,
2013-05-15 21:39:00,68.9,29.7,24.92,SW,215,5.0,5.8,23,0.00,,,-99.99,FreeWX 2.04,2013-05-16 03:39:00,
2013-05-15 21:44:00,68.5,30.4,24.92,SW,226,3.0,4.0,24,0.00,,,-99.99,FreeWX 2.04,2013-05-16 03:44:00,
2013-05-15 21:54:00,68.2,31.1,24.95,SW,232,1.0,4.5,25,0.00,,,-99.99,FreeWX 2.04,2013-05-16 03:54:00,
2013-05-15 21:59:00,68.7,31.5,24.95,WNW,283,4.0,8.7,25,0.00,,,-99.99,FreeWX 2.04,2013-05-16 03:59:00,
2013-05-15 22:04:00,68.7,31.5,24.95,NNW,343,5.0,9.6,25,0.00,,,-99.99,FreeWX 2.04,2013-05-16 04:04:00,
2013-05-15 22:09:00,68.4,31.1,24.95,North,1,6.0,12.1,25,0.00,,,-99.99,FreeWX 2.04,2013-05-16 04:09:00,
2013-05-15 22:14:00,67.5,32.4,24.95,NNE,14,6.0,12.1,27,0.00,,,-99.99,FreeWX 2.04,2013-05-16 04:14:00,
2013-05-15 22:19:00,66.7,33.4,24.95,NNE,27,4.0,5.8,29,0.00,,,-99.99,FreeWX 2.04,2013-05-16 04:19:00,
2013-05-15 22:24:00,66.4,35.6,24.95,NNE,29,3.0,7.8,32,0.00,,,-99.99,FreeWX 2.04,2013-05-16 04:24:00,
2013-05-15 22:29:00,66.2,36.3,24.95,NNE,25,4.0,6.7,33,0.00,,,-99.99,FreeWX 2.04,2013-05-16 04:29:00,
2013-05-15 22:34:00,65.7,35.8,24.95,NNE,27,4.0,5.8,33,0.00,,,-99.99,FreeWX 2.04,2013-05-16 04:34:00,
2013-05-15 22:39:00,65.7,35.8,24.95,NNE,28,4.0,7.4,33,0.00,,,-99.99,FreeWX 2.04,2013-05-16 04:39:00,
2013-05-15 22:44:00,65.3,36.1,24.95,NNE,26,4.0,6.9,34,0.00,,,-99.99,FreeWX 2.04,2013-05-16 04:44:00,
2013-05-15 22:49:00,65.8,36.0,24.95,NNE,24,5.0,9.6,33,0.00,,,-99.99,FreeWX 2.04,2013-05-16 04:49:00,
2013-05-15 22:54:00,66.6,35.1,24.95,NNE,17,6.0,8.7,31,0.00,,,-99.99,FreeWX 2.04,2013-05-16 04:54:00,
2013-05-15 22:59:00,66.4,34.9,24.95,NNE,15,6.0,10.5,31,0.00,,,-99.99,FreeWX 2.04,2013-05-16 04:59:00,
2013-05-15 23:04:00,66.7,34.3,24.95,NNE,13,6.0,9.2,30,0.00,,,-99.99,FreeWX 2.04,2013-05-16 05:04:00,
2013-05-15 23:09:00,66.0,34.5,24.95,NNE,15,6.0,8.7,31,0.00,,,-99.99,FreeWX 2.04,2013-05-16 05:09:00,
2013-05-15 23:14:00,66.0,33.6,24.95,NNE,24,6.0,8.7,30,0.00,,,-99.99,FreeWX 2.04,2013-05-16 05:14:00,
2013-05-15 23:19:00,65.1,35.2,24.95,NNE,26,5.0,6.9,33,0.00,,,-99.99,FreeWX 2.04,2013-05-16 05:19:00,
2013-05-15 23:24:00,65.7,35.1,24.95,NNE,22,4.0,7.4,32,0.00,,,-99.99,FreeWX 2.04,2013-05-16 05:24:00,
2013-05-15 23:29:00,65.7,34.2,24.95,North,8,4.0,8.7,31,0.00,,,-99.99,FreeWX 2.04,2013-05-16 05:29:00,
2013-05-15 23:34:00,64.9,34.3,24.95,NNE,17,4.0,5.8,32,0.00,,,-99.99,FreeWX 2.04,2013-05-16 05:34:00,
2013-05-15 23:39:00,64.2,34.5,24.95,NNE,33,3.0,5.8,33,0.00,,,-99.99,FreeWX 2.04,2013-05-16 05:39:00,
2013-05-15 23:44:00,64.6,34.9,24.95,NNE,27,4.0,6.3,33,0.00,,,-99.99,FreeWX 2.04,2013-05-16 05:44:00,
2013-05-15 23:49:00,64.6,34.9,24.95,NNE,30,4.0,7.8,33,0.00,,,-99.99,FreeWX 2.04,2013-05-16 05:49:00,
2013-05-15 23:55:00,63.7,34.0,24.95,NE,35,4.0,6.7,33,0.00,,,-99.99,FreeWX 2.04,2013-05-16 05:55:00,